createdAt,value
2018-01-12T00:00:31.997Z,1017.91
2018-01-12T00:01:12.592Z,1017.88
2018-01-12T00:01:53.180Z,1017.91
2018-01-12T00:02:33.751Z,1017.92
2018-01-12T00:03:14.320Z,1017.91
2018-01-12T00:03:54.894Z,1017.9
2018-01-12T00:04:35.469Z,1017.91
2018-01-12T00:05:16.028Z,1017.87
2018-01-12T00:05:56.609Z,1017.87
2018-01-12T00:06:37.182Z,1017.89
2018-01-12T00:07:17.821Z,1017.88
2018-01-12T00:07:58.341Z,1017.91
2018-01-12T00:08:38.908Z,1017.88
2018-01-12T00:09:19.478Z,1017.9
2018-01-12T00:10:00.051Z,1017.94
2018-01-12T00:10:40.590Z,1017.96
2018-01-12T00:11:21.160Z,1017.9
2018-01-12T00:12:01.740Z,1017.95
2018-01-12T00:12:42.336Z,1017.94
2018-01-12T00:13:22.903Z,1017.95
2018-01-12T00:14:03.501Z,1017.96
2018-01-12T00:14:44.070Z,1017.98
2018-01-12T00:15:24.639Z,1017.97
2018-01-12T00:16:05.202Z,1017.95
2018-01-12T00:16:45.768Z,1017.94
2018-01-12T00:17:26.361Z,1017.92
2018-01-12T00:18:06.951Z,1017.94
2018-01-12T00:18:47.520Z,1017.95
2018-01-12T00:19:28.106Z,1017.97
2018-01-12T00:20:08.668Z,1017.94
2018-01-12T00:20:49.238Z,1017.99
2018-01-12T00:21:29.811Z,1017.95
2018-01-12T00:22:10.404Z,1017.99
2018-01-12T00:22:50.958Z,1018
2018-01-12T00:23:31.521Z,1018
2018-01-12T00:24:12.110Z,1018.02
2018-01-12T00:24:52.660Z,1018.03
2018-01-12T00:25:33.265Z,1018
2018-01-12T00:26:13.813Z,1018.03
2018-01-12T00:26:54.397Z,1018
2018-01-12T00:27:34.965Z,1018.07
2018-01-12T00:28:15.548Z,1018.06
2018-01-12T00:28:56.114Z,1018.1
2018-01-12T00:29:36.674Z,1018.15
2018-01-12T00:30:17.257Z,1018.13
2018-01-12T00:30:57.829Z,1018.16
2018-01-12T00:31:38.387Z,1018.13
2018-01-12T00:32:18.967Z,1018.13
2018-01-12T00:32:59.550Z,1018.13
2018-01-12T00:33:40.130Z,1018.17
2018-01-12T00:34:20.717Z,1018.19
2018-01-12T00:35:01.281Z,1018.17
2018-01-12T00:35:41.869Z,1018.15
2018-01-12T00:36:22.435Z,1018.15
2018-01-12T00:37:03.029Z,1018.17
2018-01-12T00:37:43.618Z,1018.13
2018-01-12T00:38:24.175Z,1018.13
2018-01-12T00:39:04.774Z,1018.15
2018-01-12T00:39:45.349Z,1018.17
2018-01-12T00:40:25.917Z,1018.16
2018-01-12T00:41:06.491Z,1018.11
2018-01-12T00:41:47.048Z,1018.13
2018-01-12T00:42:27.602Z,1018.17
2018-01-12T00:43:08.210Z,1018.15
2018-01-12T00:43:48.776Z,1018.16
2018-01-12T00:44:29.340Z,1018.16
2018-01-12T00:45:09.909Z,1018.14
2018-01-12T00:45:50.488Z,1018.17
2018-01-12T00:46:31.057Z,1018.17
2018-01-12T00:47:11.728Z,1018.16
2018-01-12T00:47:52.288Z,1018.19
2018-01-12T00:48:32.859Z,1018.2
2018-01-12T00:49:13.473Z,1018.22
2018-01-12T00:49:54.055Z,1018.22
2018-01-12T00:50:34.634Z,1018.22
2018-01-12T00:51:15.203Z,1018.24
2018-01-12T00:51:55.781Z,1018.24
2018-01-12T00:52:36.350Z,1018.24
2018-01-12T00:53:16.913Z,1018.26
2018-01-12T00:53:57.494Z,1018.24
2018-01-12T00:54:38.054Z,1018.25
2018-01-12T00:55:18.639Z,1018.26
2018-01-12T00:55:59.203Z,1018.23
2018-01-12T00:56:39.796Z,1018.27
2018-01-12T00:57:20.360Z,1018.25
2018-01-12T00:58:00.945Z,1018.32
2018-01-12T00:58:41.506Z,1018.26
2018-01-12T00:59:22.083Z,1018.28
2018-01-12T01:00:02.639Z,1018.31
2018-01-12T01:00:43.207Z,1018.3
2018-01-12T01:01:23.798Z,1018.37
2018-01-12T01:02:04.388Z,1018.39
2018-01-12T01:02:44.961Z,1018.35
2018-01-12T01:03:25.533Z,1018.41
2018-01-12T01:04:06.168Z,1018.41
2018-01-12T01:04:46.737Z,1018.42
2018-01-12T01:05:27.291Z,1018.4
2018-01-12T01:06:07.848Z,1018.4
2018-01-12T01:06:48.420Z,1018.41
2018-01-12T01:07:28.978Z,1018.41
2018-01-12T01:08:09.543Z,1018.47
2018-01-12T01:08:50.118Z,1018.44
2018-01-12T01:09:30.688Z,1018.46
2018-01-12T01:10:11.282Z,1018.48
2018-01-12T01:10:51.844Z,1018.49
2018-01-12T01:11:32.431Z,1018.52
2018-01-12T01:12:12.993Z,1018.53
2018-01-12T01:12:53.574Z,1018.57
2018-01-12T01:13:34.165Z,1018.53
2018-01-12T01:14:14.741Z,1018.52
2018-01-12T01:14:55.286Z,1018.52
2018-01-12T01:15:35.848Z,1018.52
2018-01-12T01:16:16.430Z,1018.52
2018-01-12T01:16:56.984Z,1018.53
2018-01-12T01:17:38.265Z,1018.53
2018-01-12T01:18:18.825Z,1018.5
2018-01-12T01:18:59.388Z,1018.48
2018-01-12T01:19:39.987Z,1018.53
2018-01-12T01:20:20.557Z,1018.52
2018-01-12T01:21:01.209Z,1018.49
2018-01-12T01:21:41.790Z,1018.53
2018-01-12T01:22:22.349Z,1018.52
2018-01-12T01:23:02.919Z,1018.55
2018-01-12T01:23:43.497Z,1018.57
2018-01-12T01:24:24.063Z,1018.58
2018-01-12T01:25:04.610Z,1018.56
2018-01-12T01:25:45.231Z,1018.58
2018-01-12T01:26:25.796Z,1018.57
2018-01-12T01:27:06.357Z,1018.57
2018-01-12T01:27:46.929Z,1018.6
2018-01-12T01:28:27.497Z,1018.58
2018-01-12T01:29:08.085Z,1018.6
2018-01-12T01:29:48.671Z,1018.58
2018-01-12T01:30:29.254Z,1018.59
2018-01-12T01:31:09.810Z,1018.6
2018-01-12T01:31:50.374Z,1018.6
2018-01-12T01:32:30.922Z,1018.58
2018-01-12T01:33:11.481Z,1018.62
2018-01-12T01:33:52.046Z,1018.6
2018-01-12T01:34:32.618Z,1018.61
2018-01-12T01:35:13.240Z,1018.59
2018-01-12T01:35:53.825Z,1018.65
2018-01-12T01:36:34.433Z,1018.66
2018-01-12T01:37:15.016Z,1018.65
2018-01-12T01:37:55.592Z,1018.68
2018-01-12T01:38:36.157Z,1018.68
2018-01-12T01:39:16.729Z,1018.71
2018-01-12T01:39:57.290Z,1018.72
2018-01-12T01:40:37.856Z,1018.74
2018-01-12T01:41:18.473Z,1018.76
2018-01-12T01:41:59.011Z,1018.76
2018-01-12T01:42:39.605Z,1018.75
2018-01-12T01:43:20.237Z,1018.77
2018-01-12T01:44:00.784Z,1018.77
2018-01-12T01:44:41.359Z,1018.76
2018-01-12T01:45:21.923Z,1018.77
2018-01-12T01:46:02.500Z,1018.8
2018-01-12T01:46:43.101Z,1018.8
2018-01-12T01:47:23.683Z,1018.79
2018-01-12T01:48:04.251Z,1018.75
2018-01-12T01:48:44.822Z,1018.77
2018-01-12T01:49:25.383Z,1018.71
2018-01-12T01:50:05.959Z,1018.75
2018-01-12T01:50:46.546Z,1018.73
2018-01-12T01:51:27.126Z,1018.79
2018-01-12T01:52:07.696Z,1018.77
2018-01-12T01:52:48.277Z,1018.77
2018-01-12T01:53:28.854Z,1018.75
2018-01-12T01:54:09.421Z,1018.81
2018-01-12T01:54:50.068Z,1018.8
2018-01-12T01:55:30.602Z,1018.8
2018-01-12T01:56:11.164Z,1018.81
2018-01-12T01:56:51.721Z,1018.79
2018-01-12T01:57:32.293Z,1018.82
2018-01-12T01:58:12.853Z,1018.84
2018-01-12T01:58:53.431Z,1018.79
2018-01-12T01:59:34.618Z,1018.76
2018-01-12T02:00:15.182Z,1018.81
2018-01-12T02:00:55.732Z,1018.79
2018-01-12T02:01:36.285Z,1018.81
2018-01-12T02:02:16.848Z,1018.78
2018-01-12T02:02:57.412Z,1018.78
2018-01-12T02:03:37.982Z,1018.79
2018-01-12T02:04:18.566Z,1018.8
2018-01-12T02:04:59.139Z,1018.8
2018-01-12T02:05:39.722Z,1018.85
2018-01-12T02:06:20.278Z,1018.77
2018-01-12T02:07:00.837Z,1018.8
2018-01-12T02:07:41.401Z,1018.77
2018-01-12T02:08:21.990Z,1018.81
2018-01-12T02:09:02.565Z,1018.89
2018-01-12T02:09:43.123Z,1018.8
2018-01-12T02:10:23.738Z,1018.83
2018-01-12T02:11:04.313Z,1018.86
2018-01-12T02:11:44.871Z,1018.89
2018-01-12T02:12:25.488Z,1018.89
2018-01-12T02:13:06.050Z,1018.92
2018-01-12T02:13:46.650Z,1018.91
2018-01-12T02:14:27.199Z,1018.94
2018-01-12T02:15:07.772Z,1018.95
2018-01-12T02:15:48.358Z,1018.92
2018-01-12T02:16:28.912Z,1018.94
2018-01-12T02:17:09.484Z,1018.97
2018-01-12T02:17:50.067Z,1018.94
2018-01-12T02:18:30.626Z,1018.97
2018-01-12T02:19:11.199Z,1018.96
2018-01-12T02:19:51.793Z,1018.96
2018-01-12T02:20:32.359Z,1018.96
2018-01-12T02:21:12.928Z,1018.99
2018-01-12T02:21:53.498Z,1018.96
2018-01-12T02:22:34.064Z,1018.99
2018-01-12T02:23:14.641Z,1018.95
2018-01-12T02:23:55.211Z,1018.98
2018-01-12T02:24:35.789Z,1018.94
2018-01-12T02:25:16.380Z,1019.01
2018-01-12T02:25:56.950Z,1019
2018-01-12T02:26:37.528Z,1018.94
2018-01-12T02:27:18.116Z,1019
2018-01-12T02:27:58.674Z,1019.01
2018-01-12T02:28:39.236Z,1018.99
2018-01-12T02:29:19.807Z,1019.02
2018-01-12T02:30:00.367Z,1019
2018-01-12T02:30:40.929Z,1019.01
2018-01-12T02:31:21.510Z,1019.04
2018-01-12T02:32:02.062Z,1019.03
2018-01-12T02:32:42.622Z,1019
2018-01-12T02:33:23.207Z,1019.04
2018-01-12T02:34:03.767Z,1019.05
2018-01-12T02:34:44.333Z,1019.06
2018-01-12T02:35:24.919Z,1019.07
2018-01-12T02:36:05.496Z,1019.09
2018-01-12T02:36:46.052Z,1019.09
2018-01-12T02:37:26.609Z,1019.06
2018-01-12T02:38:07.169Z,1019.09
2018-01-12T02:38:47.739Z,1019.07
2018-01-12T02:39:28.311Z,1019.11
2018-01-12T02:40:08.863Z,1019.08
2018-01-12T02:40:49.451Z,1019.11
2018-01-12T02:41:30.054Z,1019.09
2018-01-12T02:42:10.596Z,1019.13
2018-01-12T02:42:51.179Z,1019.14
2018-01-12T02:43:31.741Z,1019.13
2018-01-12T02:44:12.301Z,1019.13
2018-01-12T02:44:52.877Z,1019.13
2018-01-12T02:45:33.442Z,1019.19
2018-01-12T02:46:14.016Z,1019.19
2018-01-12T02:46:54.580Z,1019.17
2018-01-12T02:47:35.143Z,1019.2
2018-01-12T02:48:15.717Z,1019.19
2018-01-12T02:48:56.293Z,1019.21
2018-01-12T02:49:36.858Z,1019.19
2018-01-12T02:50:17.420Z,1019.19
2018-01-12T02:50:57.981Z,1019.21
2018-01-12T02:51:38.558Z,1019.19
2018-01-12T02:52:19.129Z,1019.2
2018-01-12T02:52:59.697Z,1019.22
2018-01-12T02:53:40.249Z,1019.21
2018-01-12T02:54:20.829Z,1019.2
2018-01-12T02:55:01.399Z,1019.2
2018-01-12T02:55:41.965Z,1019.23
2018-01-12T02:56:22.545Z,1019.24
2018-01-12T02:57:03.127Z,1019.23
2018-01-12T02:57:43.691Z,1019.25
2018-01-12T02:58:24.267Z,1019.24
2018-01-12T02:59:04.859Z,1019.27
2018-01-12T02:59:45.415Z,1019.31
2018-01-12T03:00:25.989Z,1019.35
2018-01-12T03:01:06.567Z,1019.34
2018-01-12T03:01:47.126Z,1019.36
2018-01-12T03:02:27.800Z,1019.36
2018-01-12T03:03:08.355Z,1019.37
2018-01-12T03:03:48.916Z,1019.35
2018-01-12T03:04:29.533Z,1019.38
2018-01-12T03:05:10.101Z,1019.37
2018-01-12T03:05:50.670Z,1019.39
2018-01-12T03:06:31.230Z,1019.44
2018-01-12T03:07:11.804Z,1019.4
2018-01-12T03:07:52.367Z,1019.45
2018-01-12T03:08:32.931Z,1019.46
2018-01-12T03:09:13.486Z,1019.48
2018-01-12T03:09:54.041Z,1019.47
2018-01-12T03:10:34.604Z,1019.48
2018-01-12T03:11:15.178Z,1019.46
2018-01-12T03:11:55.731Z,1019.5
2018-01-12T03:12:36.311Z,1019.48
2018-01-12T03:13:16.879Z,1019.5
2018-01-12T03:13:57.469Z,1019.51
2018-01-12T03:14:38.010Z,1019.5
2018-01-12T03:15:18.575Z,1019.51
2018-01-12T03:15:59.163Z,1019.5
2018-01-12T03:16:39.715Z,1019.45
2018-01-12T03:17:20.275Z,1019.46
2018-01-12T03:18:00.847Z,1019.45
2018-01-12T03:18:41.407Z,1019.44
2018-01-12T03:19:22.000Z,1019.43
2018-01-12T03:20:02.556Z,1019.4
2018-01-12T03:20:43.118Z,1019.45
2018-01-12T03:21:23.665Z,1019.43
2018-01-12T03:22:04.233Z,1019.49
2018-01-12T03:22:44.789Z,1019.49
2018-01-12T03:23:25.365Z,1019.49
2018-01-12T03:24:05.953Z,1019.56
2018-01-12T03:24:46.516Z,1019.51
2018-01-12T03:25:27.072Z,1019.52
2018-01-12T03:26:07.664Z,1019.53
2018-01-12T03:26:48.250Z,1019.52
2018-01-12T03:27:28.828Z,1019.52
2018-01-12T03:28:09.391Z,1019.54
2018-01-12T03:28:49.969Z,1019.57
2018-01-12T03:29:30.548Z,1019.55
2018-01-12T03:30:11.119Z,1019.56
2018-01-12T03:30:51.689Z,1019.57
2018-01-12T03:31:32.276Z,1019.55
2018-01-12T03:32:12.858Z,1019.58
2018-01-12T03:32:53.406Z,1019.6
2018-01-12T03:33:33.966Z,1019.6
2018-01-12T03:34:14.559Z,1019.56
2018-01-12T03:34:55.135Z,1019.55
2018-01-12T03:35:35.698Z,1019.55
2018-01-12T03:36:16.263Z,1019.57
2018-01-12T03:36:56.843Z,1019.6
2018-01-12T03:37:37.427Z,1019.6
2018-01-12T03:38:18.002Z,1019.59
2018-01-12T03:38:58.571Z,1019.59
2018-01-12T03:39:39.135Z,1019.61
2018-01-12T03:40:19.697Z,1019.64
2018-01-12T03:41:00.259Z,1019.66
2018-01-12T03:41:40.831Z,1019.64
2018-01-12T03:42:21.398Z,1019.6
2018-01-12T03:43:01.965Z,1019.6
2018-01-12T03:43:42.553Z,1019.59
2018-01-12T03:44:23.121Z,1019.62
2018-01-12T03:45:03.691Z,1019.62
2018-01-12T03:45:44.251Z,1019.65
2018-01-12T03:46:24.855Z,1019.66
2018-01-12T03:47:05.425Z,1019.68
2018-01-12T03:47:46.010Z,1019.65
2018-01-12T03:48:26.571Z,1019.7
2018-01-12T03:49:07.140Z,1019.69
2018-01-12T03:49:47.708Z,1019.68
2018-01-12T03:50:28.285Z,1019.68
2018-01-12T03:51:08.847Z,1019.73
2018-01-12T03:51:49.470Z,1019.74
2018-01-12T03:52:30.036Z,1019.7
2018-01-12T03:53:10.618Z,1019.74
2018-01-12T03:53:51.181Z,1019.7
2018-01-12T03:54:31.753Z,1019.71
2018-01-12T03:55:12.316Z,1019.77
2018-01-12T03:55:52.880Z,1019.75
2018-01-12T03:56:33.439Z,1019.71
2018-01-12T03:57:14.012Z,1019.77
2018-01-12T03:57:54.580Z,1019.75
2018-01-12T03:58:35.134Z,1019.75
2018-01-12T03:59:15.698Z,1019.78
2018-01-12T03:59:56.276Z,1019.76
2018-01-12T04:00:36.861Z,1019.76
2018-01-12T04:01:17.427Z,1019.75
2018-01-12T04:01:58.002Z,1019.76
2018-01-12T04:02:38.577Z,1019.79
2018-01-12T04:03:19.184Z,1019.8
2018-01-12T04:03:59.740Z,1019.77
2018-01-12T04:04:40.308Z,1019.8
2018-01-12T04:05:20.889Z,1019.74
2018-01-12T04:06:01.448Z,1019.8
2018-01-12T04:06:42.032Z,1019.79
2018-01-12T04:07:22.602Z,1019.78
2018-01-12T04:08:03.202Z,1019.75
2018-01-12T04:08:43.782Z,1019.77
2018-01-12T04:09:24.405Z,1019.79
2018-01-12T04:10:05.003Z,1019.79
2018-01-12T04:10:45.602Z,1019.77
2018-01-12T04:11:26.187Z,1019.79
2018-01-12T04:12:06.757Z,1019.77
2018-01-12T04:12:47.322Z,1019.75
2018-01-12T04:13:27.898Z,1019.76
2018-01-12T04:14:08.458Z,1019.75
2018-01-12T04:14:49.016Z,1019.8
2018-01-12T04:15:29.590Z,1019.79
2018-01-12T04:16:10.183Z,1019.77
2018-01-12T04:16:50.761Z,1019.78
2018-01-12T04:17:31.318Z,1019.78
2018-01-12T04:18:11.895Z,1019.8
2018-01-12T04:18:52.463Z,1019.85
2018-01-12T04:19:33.027Z,1019.86
2018-01-12T04:20:13.590Z,1019.84
2018-01-12T04:20:54.168Z,1019.92
2018-01-12T04:21:34.741Z,1019.91
2018-01-12T04:22:15.324Z,1019.96
2018-01-12T04:22:55.893Z,1019.97
2018-01-12T04:23:36.457Z,1019.94
2018-01-12T04:24:17.030Z,1020.02
2018-01-12T04:24:57.611Z,1019.99
2018-01-12T04:25:38.177Z,1019.94
2018-01-12T04:26:18.742Z,1019.96
2018-01-12T04:26:59.310Z,1019.99
2018-01-12T04:27:39.871Z,1020
2018-01-12T04:28:20.439Z,1019.94
2018-01-12T04:29:01.001Z,1019.98
2018-01-12T04:29:41.565Z,1019.98
2018-01-12T04:30:22.143Z,1019.99
2018-01-12T04:31:02.709Z,1019.97
2018-01-12T04:31:43.318Z,1019.95
2018-01-12T04:32:23.880Z,1019.98
2018-01-12T04:33:04.478Z,1019.91
2018-01-12T04:33:45.039Z,1019.94
2018-01-12T04:34:25.597Z,1019.95
2018-01-12T04:35:06.224Z,1019.92
2018-01-12T04:35:46.732Z,1019.91
2018-01-12T04:36:27.290Z,1019.94
2018-01-12T04:37:07.851Z,1019.94
2018-01-12T04:37:48.414Z,1019.93
2018-01-12T04:38:28.990Z,1019.92
2018-01-12T04:39:09.552Z,1019.98
2018-01-12T04:39:50.154Z,1019.99
2018-01-12T04:40:30.689Z,1019.94
2018-01-12T04:41:11.251Z,1019.94
2018-01-12T04:41:51.814Z,1019.95
2018-01-12T04:42:32.383Z,1019.99
2018-01-12T04:43:12.943Z,1020
2018-01-12T04:43:53.508Z,1019.96
2018-01-12T04:44:34.079Z,1019.97
2018-01-12T04:45:14.643Z,1019.99
2018-01-12T04:45:55.210Z,1019.99
2018-01-12T04:46:35.792Z,1020.02
2018-01-12T04:47:16.356Z,1020.03
2018-01-12T04:47:56.901Z,1020
2018-01-12T04:48:37.461Z,1020.02
2018-01-12T04:49:18.016Z,1020.02
2018-01-12T04:49:58.566Z,1019.97
2018-01-12T04:50:39.144Z,1020.03
2018-01-12T04:51:19.720Z,1019.97
2018-01-12T04:52:00.289Z,1020
2018-01-12T04:52:40.854Z,1019.97
2018-01-12T04:53:21.417Z,1019.97
2018-01-12T04:54:01.991Z,1020
2018-01-12T04:54:42.560Z,1019.98
2018-01-12T04:55:23.118Z,1020.02
2018-01-12T04:56:03.682Z,1019.99
2018-01-12T04:56:44.282Z,1019.99
2018-01-12T04:57:24.847Z,1020.01
2018-01-12T04:58:05.412Z,1019.98
2018-01-12T04:58:45.978Z,1019.99
2018-01-12T04:59:26.553Z,1020.02
2018-01-12T05:00:07.128Z,1020.02
2018-01-12T05:00:47.710Z,1020
2018-01-12T05:01:28.285Z,1020.03
2018-01-12T05:02:08.865Z,1020.01
2018-01-12T05:02:49.434Z,1020
2018-01-12T05:03:30.035Z,1020.06
2018-01-12T05:04:10.601Z,1020.05
2018-01-12T05:04:51.156Z,1020.03
2018-01-12T05:05:31.738Z,1020.08
2018-01-12T05:06:12.303Z,1020.04
2018-01-12T05:06:52.893Z,1020.12
2018-01-12T05:07:33.473Z,1020.1
2018-01-12T05:08:14.030Z,1020.14
2018-01-12T05:08:54.645Z,1020.11
2018-01-12T05:09:35.215Z,1020.11
2018-01-12T05:10:15.780Z,1020.15
2018-01-12T05:10:56.343Z,1020.12
2018-01-12T05:11:36.911Z,1020.12
2018-01-12T05:12:17.647Z,1020.15
2018-01-12T05:12:58.340Z,1020.15
2018-01-12T05:13:38.909Z,1020.15
2018-01-12T05:14:19.853Z,1020.13
2018-01-12T05:15:01.623Z,1020.13
2018-01-12T05:15:42.186Z,1020.19
2018-01-12T05:16:23.007Z,1020.15
2018-01-12T05:17:03.733Z,1020.2
2018-01-12T05:17:44.342Z,1020.21
2018-01-12T05:18:24.925Z,1020.19
2018-01-12T05:19:05.501Z,1020.21
2018-01-12T05:19:46.103Z,1020.21
2018-01-12T05:20:26.674Z,1020.25
2018-01-12T05:21:07.238Z,1020.19
2018-01-12T05:21:47.796Z,1020.22
2018-01-12T05:22:28.452Z,1020.24
2018-01-12T05:23:09.006Z,1020.25
2018-01-12T05:23:49.588Z,1020.22
2018-01-12T05:24:30.174Z,1020.27
2018-01-12T05:25:10.748Z,1020.25
2018-01-12T05:25:51.313Z,1020.25
2018-01-12T05:26:31.886Z,1020.26
2018-01-12T05:27:12.450Z,1020.25
2018-01-12T05:27:53.025Z,1020.23
2018-01-12T05:28:33.597Z,1020.2
2018-01-12T05:29:14.166Z,1020.23
2018-01-12T05:29:54.732Z,1020.24
2018-01-12T05:30:35.293Z,1020.27
2018-01-12T05:31:15.906Z,1020.21
2018-01-12T05:31:56.473Z,1020.25
2018-01-12T05:32:37.034Z,1020.26
2018-01-12T05:33:17.608Z,1020.26
2018-01-12T05:33:58.179Z,1020.24
2018-01-12T05:34:38.739Z,1020.26
2018-01-12T05:35:19.376Z,1020.26
2018-01-12T05:35:59.943Z,1020.27
2018-01-12T05:36:40.520Z,1020.24
2018-01-12T05:37:21.090Z,1020.24
2018-01-12T05:38:01.678Z,1020.22
2018-01-12T05:38:42.272Z,1020.24
2018-01-12T05:39:22.833Z,1020.31
2018-01-12T05:40:03.404Z,1020.3
2018-01-12T05:40:43.965Z,1020.29
2018-01-12T05:41:24.537Z,1020.34
2018-01-12T05:42:05.134Z,1020.33
2018-01-12T05:42:45.729Z,1020.34
2018-01-12T05:43:26.304Z,1020.39
2018-01-12T05:44:06.863Z,1020.39
2018-01-12T05:44:47.420Z,1020.41
2018-01-12T05:45:27.992Z,1020.41
2018-01-12T05:46:08.626Z,1020.42
2018-01-12T05:46:49.195Z,1020.41
2018-01-12T05:47:29.761Z,1020.43
2018-01-12T05:48:10.348Z,1020.44
2018-01-12T05:48:50.901Z,1020.45
2018-01-12T05:49:31.481Z,1020.42
2018-01-12T05:50:12.057Z,1020.45
2018-01-12T05:50:52.613Z,1020.47
2018-01-12T05:51:33.192Z,1020.42
2018-01-12T05:52:13.746Z,1020.49
2018-01-12T05:52:54.520Z,1020.49
2018-01-12T05:53:34.967Z,1020.49
2018-01-12T05:54:15.533Z,1020.47
2018-01-12T05:54:56.111Z,1020.44
2018-01-12T05:55:36.665Z,1020.5
2018-01-12T05:56:17.230Z,1020.48
2018-01-12T05:56:57.819Z,1020.48
2018-01-12T05:57:38.449Z,1020.51
2018-01-12T05:58:19.004Z,1020.5
2018-01-12T05:58:59.617Z,1020.52
2018-01-12T05:59:40.203Z,1020.5
2018-01-12T06:00:20.772Z,1020.51
2018-01-12T06:01:01.339Z,1020.57
2018-01-12T06:01:41.896Z,1020.53
2018-01-12T06:02:22.478Z,1020.57
2018-01-12T06:03:03.042Z,1020.58
2018-01-12T06:03:43.683Z,1020.59
2018-01-12T06:04:24.304Z,1020.61
2018-01-12T06:05:04.868Z,1020.6
2018-01-12T06:05:45.424Z,1020.6
2018-01-12T06:06:25.969Z,1020.61
2018-01-12T06:07:06.529Z,1020.59
2018-01-12T06:07:47.091Z,1020.61
2018-01-12T06:08:27.659Z,1020.61
2018-01-12T06:09:08.226Z,1020.67
2018-01-12T06:09:48.781Z,1020.65
2018-01-12T06:10:29.336Z,1020.63
2018-01-12T06:11:09.951Z,1020.65
2018-01-12T06:11:50.518Z,1020.61
2018-01-12T06:12:31.096Z,1020.66
2018-01-12T06:13:11.656Z,1020.66
2018-01-12T06:13:52.244Z,1020.66
2018-01-12T06:14:32.850Z,1020.68
2018-01-12T06:15:13.391Z,1020.68
2018-01-12T06:15:54.019Z,1020.68
2018-01-12T06:16:34.570Z,1020.7
2018-01-12T06:17:15.136Z,1020.73
2018-01-12T06:17:55.691Z,1020.75
2018-01-12T06:18:36.256Z,1020.75
2018-01-12T06:19:16.845Z,1020.71
2018-01-12T06:19:57.444Z,1020.75
2018-01-12T06:20:38.005Z,1020.79
2018-01-12T06:21:18.551Z,1020.8
2018-01-12T06:21:59.149Z,1020.78
2018-01-12T06:22:40.096Z,1020.77
2018-01-12T06:23:20.654Z,1020.81
2018-01-12T06:24:01.279Z,1020.82
2018-01-12T06:24:41.842Z,1020.83
2018-01-12T06:25:22.542Z,1020.81
2018-01-12T06:26:03.112Z,1020.82
2018-01-12T06:26:43.689Z,1020.84
2018-01-12T06:27:24.278Z,1020.84
2018-01-12T06:28:04.851Z,1020.87
2018-01-12T06:28:45.429Z,1020.84
2018-01-12T06:29:26.020Z,1020.87
2018-01-12T06:30:06.587Z,1020.86
2018-01-12T06:30:47.153Z,1020.85
2018-01-12T06:31:27.731Z,1020.85
2018-01-12T06:32:08.317Z,1020.88
2018-01-12T06:32:48.914Z,1020.9
2018-01-12T06:33:29.484Z,1020.92
2018-01-12T06:34:10.066Z,1020.94
2018-01-12T06:34:50.654Z,1020.94
2018-01-12T06:35:31.238Z,1020.95
2018-01-12T06:36:11.814Z,1020.99
2018-01-12T06:36:52.377Z,1020.99
2018-01-12T06:37:32.963Z,1021.02
2018-01-12T06:38:13.577Z,1020.98
2018-01-12T06:38:54.184Z,1021.04
2018-01-12T06:39:34.765Z,1021.04
2018-01-12T06:40:15.593Z,1021.03
2018-01-12T06:40:56.183Z,1021.02
2018-01-12T06:41:36.776Z,1021.02
2018-01-12T06:42:17.422Z,1021.07
2018-01-12T06:42:58.006Z,1021.03
2018-01-12T06:43:38.623Z,1021.09
2018-01-12T06:44:19.204Z,1021.08
2018-01-12T06:44:59.782Z,1021.12
2018-01-12T06:45:40.371Z,1021.12
2018-01-12T06:46:20.935Z,1021.12
2018-01-12T06:47:01.515Z,1021.13
2018-01-12T06:47:42.082Z,1021.16
2018-01-12T06:48:22.645Z,1021.12
2018-01-12T06:49:03.208Z,1021.15
2018-01-12T06:49:43.772Z,1021.15
2018-01-12T06:50:24.335Z,1021.17
2018-01-12T06:51:04.903Z,1021.24
2018-01-12T06:51:45.473Z,1021.2
2018-01-12T06:52:26.025Z,1021.18
2018-01-12T06:53:06.576Z,1021.18
2018-01-12T06:53:47.164Z,1021.17
2018-01-12T06:54:27.785Z,1021.2
2018-01-12T06:55:08.344Z,1021.21
2018-01-12T06:55:48.924Z,1021.22
2018-01-12T06:56:29.477Z,1021.24
2018-01-12T06:57:10.056Z,1021.24
2018-01-12T06:57:50.645Z,1021.27
2018-01-12T06:58:31.209Z,1021.3
2018-01-12T06:59:11.776Z,1021.25
2018-01-12T06:59:52.338Z,1021.3
2018-01-12T07:00:32.900Z,1021.3
2018-01-12T07:01:13.469Z,1021.27
2018-01-12T07:01:54.019Z,1021.32
2018-01-12T07:02:34.591Z,1021.3
2018-01-12T07:03:15.160Z,1021.3
2018-01-12T07:03:55.730Z,1021.31
2018-01-12T07:04:36.287Z,1021.27
2018-01-12T07:05:16.859Z,1021.31
2018-01-12T07:05:57.427Z,1021.3
2018-01-12T07:06:37.977Z,1021.34
2018-01-12T07:07:18.538Z,1021.41
2018-01-12T07:07:59.103Z,1021.34
2018-01-12T07:08:39.674Z,1021.4
2018-01-12T07:09:20.242Z,1021.38
2018-01-12T07:10:00.813Z,1021.35
2018-01-12T07:10:41.364Z,1021.4
2018-01-12T07:11:21.922Z,1021.4
2018-01-12T07:12:02.509Z,1021.39
2018-01-12T07:12:43.075Z,1021.46
2018-01-12T07:13:23.637Z,1021.49
2018-01-12T07:14:04.211Z,1021.49
2018-01-12T07:14:44.788Z,1021.46
2018-01-12T07:15:25.362Z,1021.52
2018-01-12T07:16:05.949Z,1021.55
2018-01-12T07:16:46.524Z,1021.51
2018-01-12T07:17:27.084Z,1021.52
2018-01-12T07:18:07.676Z,1021.59
2018-01-12T07:18:48.257Z,1021.56
2018-01-12T07:19:28.818Z,1021.55
2018-01-12T07:20:09.393Z,1021.58
2018-01-12T07:20:49.959Z,1021.63
2018-01-12T07:21:30.532Z,1021.65
2018-01-12T07:22:11.085Z,1021.62
2018-01-12T07:22:51.647Z,1021.61
2018-01-12T07:23:32.208Z,1021.61
2018-01-12T07:24:12.769Z,1021.64
2018-01-12T07:24:53.465Z,1021.62
2018-01-12T07:25:34.030Z,1021.61
2018-01-12T07:26:14.639Z,1021.64
2018-01-12T07:26:55.200Z,1021.68
2018-01-12T07:27:35.761Z,1021.68
2018-01-12T07:28:16.342Z,1021.62
2018-01-12T07:28:56.898Z,1021.63
2018-01-12T07:29:37.514Z,1021.64
2018-01-12T07:30:18.145Z,1021.71
2018-01-12T07:30:58.680Z,1021.7
2018-01-12T07:31:39.323Z,1021.7
2018-01-12T07:32:19.867Z,1021.71
2018-01-12T07:33:00.466Z,1021.7
2018-01-12T07:33:41.050Z,1021.7
2018-01-12T07:34:21.612Z,1021.72
2018-01-12T07:35:02.194Z,1021.72
2018-01-12T07:35:42.787Z,1021.71
2018-01-12T07:36:23.361Z,1021.74
2018-01-12T07:37:03.913Z,1021.74
2018-01-12T07:37:44.470Z,1021.77
2018-01-12T07:38:25.053Z,1021.78
2018-01-12T07:39:05.699Z,1021.8
2018-01-12T07:39:46.273Z,1021.79
2018-01-12T07:40:26.892Z,1021.78
2018-01-12T07:41:07.467Z,1021.79
2018-01-12T07:41:48.067Z,1021.83
2018-01-12T07:42:28.623Z,1021.8
2018-01-12T07:43:09.175Z,1021.85
2018-01-12T07:43:49.737Z,1021.83
2018-01-12T07:44:30.323Z,1021.81
2018-01-12T07:45:10.903Z,1021.8
2018-01-12T07:45:51.487Z,1021.86
2018-01-12T07:46:32.063Z,1021.82
2018-01-12T07:47:12.676Z,1021.83
2018-01-12T07:47:53.308Z,1021.84
2018-01-12T07:48:33.855Z,1021.84
2018-01-12T07:49:14.463Z,1021.89
2018-01-12T07:49:55.035Z,1021.85
2018-01-12T07:50:35.619Z,1021.85
2018-01-12T07:51:16.181Z,1021.88
2018-01-12T07:51:56.756Z,1021.9
2018-01-12T07:52:37.333Z,1021.89
2018-01-12T07:53:17.894Z,1021.94
2018-01-12T07:53:58.506Z,1021.85
2018-01-12T07:54:39.135Z,1021.9
2018-01-12T07:55:19.711Z,1021.9
2018-01-12T07:56:00.267Z,1021.89
2018-01-12T07:56:40.875Z,1021.93
2018-01-12T07:57:21.395Z,1021.92
2018-01-12T07:58:01.962Z,1021.94
2018-01-12T07:58:42.540Z,1021.95
2018-01-12T07:59:23.105Z,1021.91
2018-01-12T08:00:05.516Z,1021.94
2018-01-12T08:00:46.082Z,1021.95
2018-01-12T08:01:26.636Z,1021.94
2018-01-12T08:02:07.200Z,1021.91
2018-01-12T08:02:47.832Z,1021.92
2018-01-12T08:03:28.390Z,1021.91
2018-01-12T08:04:08.979Z,1021.89
2018-01-12T08:04:49.528Z,1021.92
2018-01-12T08:05:30.083Z,1021.94
2018-01-12T08:06:10.673Z,1021.91
2018-01-12T08:06:51.249Z,1021.89
2018-01-12T08:07:31.802Z,1021.91
2018-01-12T08:08:12.395Z,1021.9
2018-01-12T08:08:52.961Z,1021.91
2018-01-12T08:09:33.527Z,1021.89
2018-01-12T08:10:14.077Z,1021.93
2018-01-12T08:10:54.635Z,1021.95
2018-01-12T08:11:35.221Z,1021.9
2018-01-12T08:12:15.787Z,1021.91
2018-01-12T08:12:56.345Z,1022.01
2018-01-12T08:13:36.898Z,1022.03